sensor_id;sensor_type;location;lat;lon;timestamp;temperature;humidity
22108;DHT22;11220;48.812;9.128;2023-09-08T00:00:55;21.40;94.20
22108;DHT22;11220;48.812;9.128;2023-09-08T00:03:21;21.40;94.20
22108;DHT22;11220;48.812;9.128;2023-09-08T00:05:47;21.40;94.30
22108;DHT22;11220;48.812;9.128;2023-09-08T00:08:12;21.40;94.30
22108;DHT22;11220;48.812;9.128;2023-09-08T00:10:38;21.40;94.20
22108;DHT22;11220;48.812;9.128;2023-09-08T00:13:03;21.40;94.20
22108;DHT22;11220;48.812;9.128;2023-09-08T00:15:29;21.40;94.20
22108;DHT22;11220;48.812;9.128;2023-09-08T00:17:54;21.40;94.20
22108;DHT22;11220;48.812;9.128;2023-09-08T00:20:22;21.50;94.20
22108;DHT22;11220;48.812;9.128;2023-09-08T00:22:47;21.40;94.20
22108;DHT22;11220;48.812;9.128;2023-09-08T00:25:13;21.40;94.20
22108;DHT22;11220;48.812;9.128;2023-09-08T00:27:38;21.50;94.30
22108;DHT22;11220;48.812;9.128;2023-09-08T00:30:04;21.30;94.20
22108;DHT22;11220;48.812;9.128;2023-09-08T00:32:30;21.30;94.10
22108;DHT22;11220;48.812;9.128;2023-09-08T00:34:56;21.30;94.10
22108;DHT22;11220;48.812;9.128;2023-09-08T00:37:21;21.30;94.10
22108;DHT22;11220;48.812;9.128;2023-09-08T00:39:47;21.30;94.10
22108;DHT22;11220;48.812;9.128;2023-09-08T00:42:12;21.30;94.10
22108;DHT22;11220;48.812;9.128;2023-09-08T00:44:38;21.30;94.10
22108;DHT22;11220;48.812;9.128;2023-09-08T00:47:04;21.30;94.10
22108;DHT22;11220;48.812;9.128;2023-09-08T00:49:29;21.20;94.10
22108;DHT22;11220;48.812;9.128;2023-09-08T00:51:55;21.20;94.00
22108;DHT22;11220;48.812;9.128;2023-09-08T00:54:21;21.20;94.00
22108;DHT22;11220;48.812;9.128;2023-09-08T00:56:48;21.20;94.00
22108;DHT22;11220;48.812;9.128;2023-09-08T00:59:14;21.20;94.00
22108;DHT22;11220;48.812;9.128;2023-09-08T01:01:40;21.20;94.00
22108;DHT22;11220;48.812;9.128;2023-09-08T01:04:06;21.20;94.00
22108;DHT22;11220;48.812;9.128;2023-09-08T01:06:32;21.20;94.00
22108;DHT22;11220;48.812;9.128;2023-09-08T01:09:01;21.20;94.00
22108;DHT22;11220;48.812;9.128;2023-09-08T01:11:27;21.20;94.00
22108;DHT22;11220;48.812;9.128;2023-09-08T01:13:53;21.20;94.00
22108;DHT22;11220;48.812;9.128;2023-09-08T01:16:19;21.20;94.00
22108;DHT22;11220;48.812;9.128;2023-09-08T01:18:46;21.20;93.90
22108;DHT22;11220;48.812;9.128;2023-09-08T01:21:34;21.10;93.90
22108;DHT22;11220;48.812;9.128;2023-09-08T01:26:44;21.10;93.90
22108;DHT22;11220;48.812;9.128;2023-09-08T01:29:10;21.10;93.90
22108;DHT22;11220;48.812;9.128;2023-09-08T01:31:37;21.10;93.80
22108;DHT22;11220;48.812;9.128;2023-09-08T01:34:04;21.10;93.80
22108;DHT22;11220;48.812;9.128;2023-09-08T01:36:34;21.10;93.80
22108;DHT22;11220;48.812;9.128;2023-09-08T01:39:01;21.10;93.80
22108;DHT22;11220;48.812;9.128;2023-09-08T01:41:26;21.10;93.80
22108;DHT22;11220;48.812;9.128;2023-09-08T01:43:52;21.10;93.80
22108;DHT22;11220;48.812;9.128;2023-09-08T01:46:17;21.00;93.70
22108;DHT22;11220;48.812;9.128;2023-09-08T01:48:43;21.00;93.70
22108;DHT22;11220;48.812;9.128;2023-09-08T01:51:09;21.00;93.80
22108;DHT22;11220;48.812;9.128;2023-09-08T01:53:34;21.00;93.80
22108;DHT22;11220;48.812;9.128;2023-09-08T01:56:00;21.00;93.70
22108;DHT22;11220;48.812;9.128;2023-09-08T01:58:26;21.00;93.70
22108;DHT22;11220;48.812;9.128;2023-09-08T02:00:51;21.00;93.60
22108;DHT22;11220;48.812;9.128;2023-09-08T02:03:17;21.00;93.60
22108;DHT22;11220;48.812;9.128;2023-09-08T02:05:44;21.00;93.60
22108;DHT22;11220;48.812;9.128;2023-09-08T02:08:09;21.30;93.70
22108;DHT22;11220;48.812;9.128;2023-09-08T02:10:35;21.20;93.60
22108;DHT22;11220;48.812;9.128;2023-09-08T02:13:00;20.90;93.50
22108;DHT22;11220;48.812;9.128;2023-09-08T02:15:26;21.00;93.50
22108;DHT22;11220;48.812;9.128;2023-09-08T02:17:56;20.90;93.50
22108;DHT22;11220;48.812;9.128;2023-09-08T02:20:21;20.90;93.40
22108;DHT22;11220;48.812;9.128;2023-09-08T02:22:53;20.90;93.50
22108;DHT22;11220;48.812;9.128;2023-09-08T02:25:19;20.90;93.40
22108;DHT22;11220;48.812;9.128;2023-09-08T02:27:45;20.90;93.50
22108;DHT22;11220;48.812;9.128;2023-09-08T02:30:10;20.90;93.40
22108;DHT22;11220;48.812;9.128;2023-09-08T02:32:36;20.90;93.40
22108;DHT22;11220;48.812;9.128;2023-09-08T02:35:01;20.90;93.40
22108;DHT22;11220;48.812;9.128;2023-09-08T02:37:27;20.90;93.40
22108;DHT22;11220;48.812;9.128;2023-09-08T02:39:52;20.90;93.40
22108;DHT22;11220;48.812;9.128;2023-09-08T02:42:18;20.90;93.40
22108;DHT22;11220;48.812;9.128;2023-09-08T02:44:43;20.90;93.50
22108;DHT22;11220;48.812;9.128;2023-09-08T02:47:09;20.90;93.50
22108;DHT22;11220;48.812;9.128;2023-09-08T02:49:35;20.90;93.40
22108;DHT22;11220;48.812;9.128;2023-09-08T02:52:01;20.90;93.40
22108;DHT22;11220;48.812;9.128;2023-09-08T02:54:26;20.90;93.40
22108;DHT22;11220;48.812;9.128;2023-09-08T02:56:52;20.90;93.30
22108;DHT22;11220;48.812;9.128;2023-09-08T02:59:17;20.90;93.40
22108;DHT22;11220;48.812;9.128;2023-09-08T03:01:43;20.90;93.40
22108;DHT22;11220;48.812;9.128;2023-09-08T03:04:08;20.80;93.30
22108;DHT22;11220;48.812;9.128;2023-09-08T03:06:35;20.80;93.30
22108;DHT22;11220;48.812;9.128;2023-09-08T03:09:00;20.80;93.70
22108;DHT22;11220;48.812;9.128;2023-09-08T03:11:26;20.80;93.30
22108;DHT22;11220;48.812;9.128;2023-09-08T03:13:51;20.80;93.30
22108;DHT22;11220;48.812;9.128;2023-09-08T03:16:17;20.80;93.30
22108;DHT22;11220;48.812;9.128;2023-09-08T03:18:42;20.80;93.30
22108;DHT22;11220;48.812;9.128;2023-09-08T03:21:08;20.80;93.20
22108;DHT22;11220;48.812;9.128;2023-09-08T03:23:37;20.80;93.20
22108;DHT22;11220;48.812;9.128;2023-09-08T03:26:03;20.70;93.20
22108;DHT22;11220;48.812;9.128;2023-09-08T03:28:29;20.70;93.20
22108;DHT22;11220;48.812;9.128;2023-09-08T03:30:54;20.70;93.20
22108;DHT22;11220;48.812;9.128;2023-09-08T03:33:20;20.70;93.20
22108;DHT22;11220;48.812;9.128;2023-09-08T03:35:45;20.70;93.20
22108;DHT22;11220;48.812;9.128;2023-09-08T03:38:11;20.70;93.20
22108;DHT22;11220;48.812;9.128;2023-09-08T03:40:36;20.70;93.10
22108;DHT22;11220;48.812;9.128;2023-09-08T03:43:03;20.70;93.10
22108;DHT22;11220;48.812;9.128;2023-09-08T03:45:29;20.70;93.20
22108;DHT22;11220;48.812;9.128;2023-09-08T03:47:54;20.70;93.10
22108;DHT22;11220;48.812;9.128;2023-09-08T03:50:20;20.70;93.10
22108;DHT22;11220;48.812;9.128;2023-09-08T03:52:45;20.70;93.10
22108;DHT22;11220;48.812;9.128;2023-09-08T03:55:11;20.70;93.10
22108;DHT22;11220;48.812;9.128;2023-09-08T03:57:37;20.70;93.10
22108;DHT22;11220;48.812;9.128;2023-09-08T04:00:02;20.80;93.20
22108;DHT22;11220;48.812;9.128;2023-09-08T04:02:30;20.60;93.10
22108;DHT22;11220;48.812;9.128;2023-09-08T04:04:56;20.70;93.10
22108;DHT22;11220;48.812;9.128;2023-09-08T04:07:21;20.60;93.10
22108;DHT22;11220;48.812;9.128;2023-09-08T04:09:47;20.60;93.10
22108;DHT22;11220;48.812;9.128;2023-09-08T04:12:12;20.60;93.10
22108;DHT22;11220;48.812;9.128;2023-09-08T04:14:38;20.60;93.00
22108;DHT22;11220;48.812;9.128;2023-09-08T04:17:03;20.60;93.00
22108;DHT22;11220;48.812;9.128;2023-09-08T04:19:29;20.70;93.00
22108;DHT22;11220;48.812;9.128;2023-09-08T04:21:54;20.60;93.00
22108;DHT22;11220;48.812;9.128;2023-09-08T04:24:20;20.60;93.00
22108;DHT22;11220;48.812;9.128;2023-09-08T04:26:45;20.60;93.00
22108;DHT22;11220;48.812;9.128;2023-09-08T04:29:11;21.30;93.10
22108;DHT22;11220;48.812;9.128;2023-09-08T04:31:36;20.60;92.90
22108;DHT22;11220;48.812;9.128;2023-09-08T04:34:02;20.50;92.80
22108;DHT22;11220;48.812;9.128;2023-09-08T04:36:28;20.60;92.80
22108;DHT22;11220;48.812;9.128;2023-09-08T04:38:56;20.60;92.80
22108;DHT22;11220;48.812;9.128;2023-09-08T04:41:21;20.50;92.70
22108;DHT22;11220;48.812;9.128;2023-09-08T04:43:47;20.60;92.80
22108;DHT22;11220;48.812;9.128;2023-09-08T04:46:12;20.50;92.80
22108;DHT22;11220;48.812;9.128;2023-09-08T04:48:38;20.50;92.80
22108;DHT22;11220;48.812;9.128;2023-09-08T04:51:04;20.50;92.80
22108;DHT22;11220;48.812;9.128;2023-09-08T04:53:29;20.50;92.80
22108;DHT22;11220;48.812;9.128;2023-09-08T04:55:55;20.50;92.90
22108;DHT22;11220;48.812;9.128;2023-09-08T04:58:20;20.50;92.90
22108;DHT22;11220;48.812;9.128;2023-09-08T05:00:46;20.50;93.00
22108;DHT22;11220;48.812;9.128;2023-09-08T05:03:11;20.50;93.00
22108;DHT22;11220;48.812;9.128;2023-09-08T05:05:37;20.50;93.00
22108;DHT22;11220;48.812;9.128;2023-09-08T05:08:04;20.50;93.10
22108;DHT22;11220;48.812;9.128;2023-09-08T05:10:29;20.50;93.10
22108;DHT22;11220;48.812;9.128;2023-09-08T05:12:55;20.50;93.20
22108;DHT22;11220;48.812;9.128;2023-09-08T05:15:20;20.50;93.20
22108;DHT22;11220;48.812;9.128;2023-09-08T05:17:47;20.60;93.30
22108;DHT22;11220;48.812;9.128;2023-09-08T05:20:12;20.50;93.30
22108;DHT22;11220;48.812;9.128;2023-09-08T05:22:38;20.50;93.30
22108;DHT22;11220;48.812;9.128;2023-09-08T05:25:04;20.50;93.40
22108;DHT22;11220;48.812;9.128;2023-09-08T05:27:30;20.50;93.40
22108;DHT22;11220;48.812;9.128;2023-09-08T05:29:56;20.50;93.40
22108;DHT22;11220;48.812;9.128;2023-09-08T05:32:22;20.50;93.50
22108;DHT22;11220;48.812;9.128;2023-09-08T05:34:47;20.70;93.60
22108;DHT22;11220;48.812;9.128;2023-09-08T05:37:13;20.50;93.60
22108;DHT22;11220;48.812;9.128;2023-09-08T05:39:38;20.60;93.70
22108;DHT22;11220;48.812;9.128;2023-09-08T05:42:04;20.50;93.70
22108;DHT22;11220;48.812;9.128;2023-09-08T05:44:29;20.60;93.80
22108;DHT22;11220;48.812;9.128;2023-09-08T05:46:55;20.60;93.80
22108;DHT22;11220;48.812;9.128;2023-09-08T05:49:20;20.50;93.80
22108;DHT22;11220;48.812;9.128;2023-09-08T05:51:46;20.50;93.90
22108;DHT22;11220;48.812;9.128;2023-09-08T05:54:12;20.50;93.50
22108;DHT22;11220;48.812;9.128;2023-09-08T05:56:38;20.30;92.70
22108;DHT22;11220;48.812;9.128;2023-09-08T05:59:03;20.00;92.80
22108;DHT22;11220;48.812;9.128;2023-09-08T06:01:30;20.10;93.30
22108;DHT22;11220;48.812;9.128;2023-09-08T06:03:56;19.30;93.80
22108;DHT22;11220;48.812;9.128;2023-09-08T06:06:22;19.10;94.40
22108;DHT22;11220;48.812;9.128;2023-09-08T06:08:47;18.80;95.00
22108;DHT22;11220;48.812;9.128;2023-09-08T06:11:13;18.50;95.70
22108;DHT22;11220;48.812;9.128;2023-09-08T06:13:39;18.40;96.30
22108;DHT22;11220;48.812;9.128;2023-09-08T06:16:04;18.20;96.70
22108;DHT22;11220;48.812;9.128;2023-09-08T06:18:30;18.10;97.10
22108;DHT22;11220;48.812;9.128;2023-09-08T06:21:04;18.00;97.60
22108;DHT22;11220;48.812;9.128;2023-09-08T06:23:30;17.60;98.00
22108;DHT22;11220;48.812;9.128;2023-09-08T06:25:59;17.90;98.40
22108;DHT22;11220;48.812;9.128;2023-09-08T06:28:26;17.80;98.80
22108;DHT22;11220;48.812;9.128;2023-09-08T06:30:52;17.80;99.20
22108;DHT22;11220;48.812;9.128;2023-09-08T06:33:17;17.80;99.50
22108;DHT22;11220;48.812;9.128;2023-09-08T06:35:43;17.80;99.70
22108;DHT22;11220;48.812;9.128;2023-09-08T06:38:08;17.70;99.90
22108;DHT22;11220;48.812;9.128;2023-09-08T06:40:34;17.80;99.90
22108;DHT22;11220;48.812;9.128;2023-09-08T06:42:59;17.80;99.90
22108;DHT22;11220;48.812;9.128;2023-09-08T06:45:25;17.80;99.90
22108;DHT22;11220;48.812;9.128;2023-09-08T06:47:51;17.80;99.90
22108;DHT22;11220;48.812;9.128;2023-09-08T06:50:21;17.80;99.90
22108;DHT22;11220;48.812;9.128;2023-09-08T06:52:46;17.90;99.90
22108;DHT22;11220;48.812;9.128;2023-09-08T06:55:12;18.00;99.90
22108;DHT22;11220;48.812;9.128;2023-09-08T06:57:38;18.30;99.90
22108;DHT22;11220;48.812;9.128;2023-09-08T07:00:04;18.00;99.90
22108;DHT22;11220;48.812;9.128;2023-09-08T07:02:32;18.00;99.90
22108;DHT22;11220;48.812;9.128;2023-09-08T07:04:57;18.00;99.90
22108;DHT22;11220;48.812;9.128;2023-09-08T07:07:23;18.10;99.90
22108;DHT22;11220;48.812;9.128;2023-09-08T07:09:48;18.10;99.90
22108;DHT22;11220;48.812;9.128;2023-09-08T07:12:14;18.20;99.90
22108;DHT22;11220;48.812;9.128;2023-09-08T07:14:40;18.20;99.90
22108;DHT22;11220;48.812;9.128;2023-09-08T07:17:05;18.30;99.90
22108;DHT22;11220;48.812;9.128;2023-09-08T07:19:31;18.60;99.90
22108;DHT22;11220;48.812;9.128;2023-09-08T07:21:56;18.50;99.90
22108;DHT22;11220;48.812;9.128;2023-09-08T07:24:22;18.60;99.90
22108;DHT22;11220;48.812;9.128;2023-09-08T07:26:48;18.70;99.90
22108;DHT22;11220;48.812;9.128;2023-09-08T07:29:13;18.80;99.90
22108;DHT22;11220;48.812;9.128;2023-09-08T07:31:39;18.90;99.90
22108;DHT22;11220;48.812;9.128;2023-09-08T07:34:05;19.00;99.90
22108;DHT22;11220;48.812;9.128;2023-09-08T07:36:30;19.10;99.90
22108;DHT22;11220;48.812;9.128;2023-09-08T07:38:56;19.10;99.90
22108;DHT22;11220;48.812;9.128;2023-09-08T07:41:21;19.20;99.90
22108;DHT22;11220;48.812;9.128;2023-09-08T07:43:47;19.30;99.90
22108;DHT22;11220;48.812;9.128;2023-09-08T07:46:12;19.40;99.90
22108;DHT22;11220;48.812;9.128;2023-09-08T07:48:38;19.40;99.70
22108;DHT22;11220;48.812;9.128;2023-09-08T07:51:03;19.60;99.60
22108;DHT22;11220;48.812;9.128;2023-09-08T07:53:29;19.50;99.50
22108;DHT22;11220;48.812;9.128;2023-09-08T07:55:55;19.60;99.40
22108;DHT22;11220;48.812;9.128;2023-09-08T07:58:21;19.60;99.30
22108;DHT22;11220;48.812;9.128;2023-09-08T08:00:47;19.70;99.30
22108;DHT22;11220;48.812;9.128;2023-09-08T08:03:12;19.70;99.20
22108;DHT22;11220;48.812;9.128;2023-09-08T08:05:38;19.70;99.10
22108;DHT22;11220;48.812;9.128;2023-09-08T08:08:04;19.80;99.00
22108;DHT22;11220;48.812;9.128;2023-09-08T08:10:29;19.90;99.00
22108;DHT22;11220;48.812;9.128;2023-09-08T08:12:55;19.90;98.90
22108;DHT22;11220;48.812;9.128;2023-09-08T08:15:22;19.90;98.80
22108;DHT22;11220;48.812;9.128;2023-09-08T08:17:47;19.90;98.80
22108;DHT22;11220;48.812;9.128;2023-09-08T08:20:13;20.00;98.80
22108;DHT22;11220;48.812;9.128;2023-09-08T08:22:43;20.00;98.70
22108;DHT22;11220;48.812;9.128;2023-09-08T08:25:10;20.10;98.70
22108;DHT22;11220;48.812;9.128;2023-09-08T08:27:36;20.00;98.60
22108;DHT22;11220;48.812;9.128;2023-09-08T08:30:02;20.10;98.60
22108;DHT22;11220;48.812;9.128;2023-09-08T08:32:28;20.10;98.60
22108;DHT22;11220;48.812;9.128;2023-09-08T08:34:54;20.20;98.60
22108;DHT22;11220;48.812;9.128;2023-09-08T08:37:20;20.20;98.60
22108;DHT22;11220;48.812;9.128;2023-09-08T08:39:45;20.20;98.50
22108;DHT22;11220;48.812;9.128;2023-09-08T08:42:11;20.20;98.50
22108;DHT22;11220;48.812;9.128;2023-09-08T08:44:40;20.20;98.50
22108;DHT22;11220;48.812;9.128;2023-09-08T08:47:10;20.30;98.50
22108;DHT22;11220;48.812;9.128;2023-09-08T08:49:36;20.30;98.50
22108;DHT22;11220;48.812;9.128;2023-09-08T08:52:02;20.40;98.60
22108;DHT22;11220;48.812;9.128;2023-09-08T08:54:34;20.40;98.60
22108;DHT22;11220;48.812;9.128;2023-09-08T08:57:01;20.40;98.70
22108;DHT22;11220;48.812;9.128;2023-09-08T08:59:27;20.40;98.70
22108;DHT22;11220;48.812;9.128;2023-09-08T09:01:54;20.50;98.70
22108;DHT22;11220;48.812;9.128;2023-09-08T09:04:19;20.50;98.70
22108;DHT22;11220;48.812;9.128;2023-09-08T09:06:46;20.50;98.60
22108;DHT22;11220;48.812;9.128;2023-09-08T09:09:11;20.60;98.60
22108;DHT22;11220;48.812;9.128;2023-09-08T09:11:40;20.60;98.60
22108;DHT22;11220;48.812;9.128;2023-09-08T09:14:05;20.60;98.60
22108;DHT22;11220;48.812;9.128;2023-09-08T09:16:31;20.60;98.50
22108;DHT22;11220;48.812;9.128;2023-09-08T09:18:59;20.60;98.60
22108;DHT22;11220;48.812;9.128;2023-09-08T09:21:44;20.70;98.60
22108;DHT22;11220;48.812;9.128;2023-09-08T09:24:35;20.70;98.60
22108;DHT22;11220;48.812;9.128;2023-09-08T09:27:04;20.70;98.50
22108;DHT22;11220;48.812;9.128;2023-09-08T09:29:31;20.70;98.50
22108;DHT22;11220;48.812;9.128;2023-09-08T09:32:02;20.80;98.50
22108;DHT22;11220;48.812;9.128;2023-09-08T09:34:29;20.80;98.40
22108;DHT22;11220;48.812;9.128;2023-09-08T09:36:55;20.80;98.40
22108;DHT22;11220;48.812;9.128;2023-09-08T09:39:22;20.80;98.40
22108;DHT22;11220;48.812;9.128;2023-09-08T09:41:52;20.90;98.40
22108;DHT22;11220;48.812;9.128;2023-09-08T09:44:18;20.90;98.40
22108;DHT22;11220;48.812;9.128;2023-09-08T09:46:45;20.90;98.40
22108;DHT22;11220;48.812;9.128;2023-09-08T09:49:15;20.90;98.40
22108;DHT22;11220;48.812;9.128;2023-09-08T09:51:46;20.90;98.30
22108;DHT22;11220;48.812;9.128;2023-09-08T09:54:13;20.90;98.40
22108;DHT22;11220;48.812;9.128;2023-09-08T09:56:39;21.00;98.40
22108;DHT22;11220;48.812;9.128;2023-09-08T09:59:08;21.10;98.40
22108;DHT22;11220;48.812;9.128;2023-09-08T10:01:35;21.00;98.30
22108;DHT22;11220;48.812;9.128;2023-09-08T10:04:01;21.00;98.30
22108;DHT22;11220;48.812;9.128;2023-09-08T10:06:31;21.00;98.40
22108;DHT22;11220;48.812;9.128;2023-09-08T10:09:02;21.00;98.30
22108;DHT22;11220;48.812;9.128;2023-09-08T10:11:34;21.10;98.30
22108;DHT22;11220;48.812;9.128;2023-09-08T10:14:01;21.10;98.30
22108;DHT22;11220;48.812;9.128;2023-09-08T10:16:28;21.10;98.20
22108;DHT22;11220;48.812;9.128;2023-09-08T10:18:58;21.10;98.20
22108;DHT22;11220;48.812;9.128;2023-09-08T10:21:26;21.10;98.20
22108;DHT22;11220;48.812;9.128;2023-09-08T10:24:21;21.20;98.20
22108;DHT22;11220;48.812;9.128;2023-09-08T10:26:56;21.10;98.10
22108;DHT22;11220;48.812;9.128;2023-09-08T10:29:24;21.30;98.20
22108;DHT22;11220;48.812;9.128;2023-09-08T10:31:50;21.20;98.10
22108;DHT22;11220;48.812;9.128;2023-09-08T10:34:20;21.20;98.20
22108;DHT22;11220;48.812;9.128;2023-09-08T10:36:45;21.20;98.20
22108;DHT22;11220;48.812;9.128;2023-09-08T10:39:38;21.20;98.30
22108;DHT22;11220;48.812;9.128;2023-09-08T10:44:44;21.30;98.40
22108;DHT22;11220;48.812;9.128;2023-09-08T10:47:24;21.30;98.30
22108;DHT22;11220;48.812;9.128;2023-09-08T10:49:50;21.30;98.30
22108;DHT22;11220;48.812;9.128;2023-09-08T10:52:21;21.30;98.30
22108;DHT22;11220;48.812;9.128;2023-09-08T10:54:54;21.30;98.20
22108;DHT22;11220;48.812;9.128;2023-09-08T10:57:22;21.40;98.30
22108;DHT22;11220;48.812;9.128;2023-09-08T11:00:00;21.40;98.30
22108;DHT22;11220;48.812;9.128;2023-09-08T11:02:40;21.40;98.20
22108;DHT22;11220;48.812;9.128;2023-09-08T11:05:08;21.40;98.20
22108;DHT22;11220;48.812;9.128;2023-09-08T11:07:38;21.70;98.30
22108;DHT22;11220;48.812;9.128;2023-09-08T11:10:08;21.40;98.30
22108;DHT22;11220;48.812;9.128;2023-09-08T11:12:34;21.50;98.40
22108;DHT22;11220;48.812;9.128;2023-09-08T11:15:01;21.50;98.40
22108;DHT22;11220;48.812;9.128;2023-09-08T11:17:30;21.50;98.30
22108;DHT22;11220;48.812;9.128;2023-09-08T11:19:55;21.50;98.30
22108;DHT22;11220;48.812;9.128;2023-09-08T11:22:23;21.50;98.20
22108;DHT22;11220;48.812;9.128;2023-09-08T11:24:52;21.60;98.30
22108;DHT22;11220;48.812;9.128;2023-09-08T11:27:18;21.60;98.30
22108;DHT22;11220;48.812;9.128;2023-09-08T11:29:45;21.70;98.50
22108;DHT22;11220;48.812;9.128;2023-09-08T11:32:11;21.60;98.50
22108;DHT22;11220;48.812;9.128;2023-09-08T11:34:36;21.70;98.50
22108;DHT22;11220;48.812;9.128;2023-09-08T11:37:13;21.70;98.50
22108;DHT22;11220;48.812;9.128;2023-09-08T11:39:40;21.70;98.50
22108;DHT22;11220;48.812;9.128;2023-09-08T11:42:12;21.70;98.40
22108;DHT22;11220;48.812;9.128;2023-09-08T11:44:38;21.70;98.50
22108;DHT22;11220;48.812;9.128;2023-09-08T11:47:04;21.80;98.50
22108;DHT22;11220;48.812;9.128;2023-09-08T11:49:41;21.70;98.40
22108;DHT22;11220;48.812;9.128;2023-09-08T11:52:07;21.80;98.40
22108;DHT22;11220;48.812;9.128;2023-09-08T11:54:34;21.80;98.40
22108;DHT22;11220;48.812;9.128;2023-09-08T11:57:01;21.80;98.30
22108;DHT22;11220;48.812;9.128;2023-09-08T11:59:31;21.80;98.20
22108;DHT22;11220;48.812;9.128;2023-09-08T12:01:57;21.90;98.20
22108;DHT22;11220;48.812;9.128;2023-09-08T12:04:23;21.80;98.20
22108;DHT22;11220;48.812;9.128;2023-09-08T12:06:49;21.80;98.20
22108;DHT22;11220;48.812;9.128;2023-09-08T12:09:15;21.90;98.20
22108;DHT22;11220;48.812;9.128;2023-09-08T12:11:42;21.90;98.20
22108;DHT22;11220;48.812;9.128;2023-09-08T12:14:10;21.90;98.30
22108;DHT22;11220;48.812;9.128;2023-09-08T12:16:36;21.90;98.30
22108;DHT22;11220;48.812;9.128;2023-09-08T12:19:01;22.00;98.30
22108;DHT22;11220;48.812;9.128;2023-09-08T12:21:27;21.90;98.30
22108;DHT22;11220;48.812;9.128;2023-09-08T12:23:53;22.00;98.30
22108;DHT22;11220;48.812;9.128;2023-09-08T12:26:20;22.00;98.30
22108;DHT22;11220;48.812;9.128;2023-09-08T12:28:46;22.10;98.20
22108;DHT22;11220;48.812;9.128;2023-09-08T12:31:16;22.00;98.10
22108;DHT22;11220;48.812;9.128;2023-09-08T12:33:43;22.10;98.10
22108;DHT22;11220;48.812;9.128;2023-09-08T12:36:17;22.10;98.20
22108;DHT22;11220;48.812;9.128;2023-09-08T12:38:52;22.10;98.10
22108;DHT22;11220;48.812;9.128;2023-09-08T12:41:18;22.10;98.10
22108;DHT22;11220;48.812;9.128;2023-09-08T12:43:45;22.20;98.00
22108;DHT22;11220;48.812;9.128;2023-09-08T12:46:11;22.20;97.90
22108;DHT22;11220;48.812;9.128;2023-09-08T12:48:37;22.20;97.90
22108;DHT22;11220;48.812;9.128;2023-09-08T12:51:02;22.30;97.90
22108;DHT22;11220;48.812;9.128;2023-09-08T12:53:32;22.30;97.80
22108;DHT22;11220;48.812;9.128;2023-09-08T12:55:58;22.30;97.80
22108;DHT22;11220;48.812;9.128;2023-09-08T12:58:24;22.30;97.80
22108;DHT22;11220;48.812;9.128;2023-09-08T13:00:49;22.30;97.80
22108;DHT22;11220;48.812;9.128;2023-09-08T13:03:15;22.40;97.70
22108;DHT22;11220;48.812;9.128;2023-09-08T13:05:41;22.40;97.70
22108;DHT22;11220;48.812;9.128;2023-09-08T13:08:06;22.50;97.70
22108;DHT22;11220;48.812;9.128;2023-09-08T13:10:32;22.40;97.60
22108;DHT22;11220;48.812;9.128;2023-09-08T13:12:57;22.40;97.60
22108;DHT22;11220;48.812;9.128;2023-09-08T13:15:23;22.50;97.60
22108;DHT22;11220;48.812;9.128;2023-09-08T13:17:49;22.50;97.60
22108;DHT22;11220;48.812;9.128;2023-09-08T13:20:14;22.50;97.50
22108;DHT22;11220;48.812;9.128;2023-09-08T13:22:40;22.60;97.50
22108;DHT22;11220;48.812;9.128;2023-09-08T13:25:06;22.60;97.40
22108;DHT22;11220;48.812;9.128;2023-09-08T13:27:31;22.60;97.40
22108;DHT22;11220;48.812;9.128;2023-09-08T13:30:14;22.60;97.30
22108;DHT22;11220;48.812;9.128;2023-09-08T13:32:40;22.60;97.30
22108;DHT22;11220;48.812;9.128;2023-09-08T13:35:06;22.60;97.20
22108;DHT22;11220;48.812;9.128;2023-09-08T13:37:32;22.70;97.20
22108;DHT22;11220;48.812;9.128;2023-09-08T13:40:02;22.80;97.20
22108;DHT22;11220;48.812;9.128;2023-09-08T13:42:31;22.70;97.10
22108;DHT22;11220;48.812;9.128;2023-09-08T13:44:56;22.70;97.10
22108;DHT22;11220;48.812;9.128;2023-09-08T13:47:22;22.80;97.10
22108;DHT22;11220;48.812;9.128;2023-09-08T13:49:48;22.80;97.00
22108;DHT22;11220;48.812;9.128;2023-09-08T13:52:14;22.90;96.90
22108;DHT22;11220;48.812;9.128;2023-09-08T13:54:39;22.90;96.90
22108;DHT22;11220;48.812;9.128;2023-09-08T13:57:05;23.10;96.90
22108;DHT22;11220;48.812;9.128;2023-09-08T13:59:31;22.90;96.80
22108;DHT22;11220;48.812;9.128;2023-09-08T14:01:57;23.10;96.90
22108;DHT22;11220;48.812;9.128;2023-09-08T14:04:24;23.10;96.80
22108;DHT22;11220;48.812;9.128;2023-09-08T14:06:50;23.00;96.70
22108;DHT22;11220;48.812;9.128;2023-09-08T14:09:16;23.00;96.70
22108;DHT22;11220;48.812;9.128;2023-09-08T14:11:41;23.10;96.70
22108;DHT22;11220;48.812;9.128;2023-09-08T14:14:07;23.10;96.70
22108;DHT22;11220;48.812;9.128;2023-09-08T14:16:32;23.10;96.60
22108;DHT22;11220;48.812;9.128;2023-09-08T14:18:58;23.10;96.60
22108;DHT22;11220;48.812;9.128;2023-09-08T14:21:23;23.00;96.50
22108;DHT22;11220;48.812;9.128;2023-09-08T14:23:49;23.10;96.50
22108;DHT22;11220;48.812;9.128;2023-09-08T14:26:14;23.00;96.50
22108;DHT22;11220;48.812;9.128;2023-09-08T14:28:40;23.10;96.50
22108;DHT22;11220;48.812;9.128;2023-09-08T14:31:06;23.10;96.50
22108;DHT22;11220;48.812;9.128;2023-09-08T14:33:31;23.10;96.50
22108;DHT22;11220;48.812;9.128;2023-09-08T14:35:57;23.10;96.50
22108;DHT22;11220;48.812;9.128;2023-09-08T14:38:23;23.10;96.50
22108;DHT22;11220;48.812;9.128;2023-09-08T14:40:57;23.00;96.50
22108;DHT22;11220;48.812;9.128;2023-09-08T14:43:23;23.10;96.50
22108;DHT22;11220;48.812;9.128;2023-09-08T14:45:49;23.10;96.40
22108;DHT22;11220;48.812;9.128;2023-09-08T14:48:15;23.10;96.40
22108;DHT22;11220;48.812;9.128;2023-09-08T14:50:40;23.10;96.40
22108;DHT22;11220;48.812;9.128;2023-09-08T14:53:06;23.30;96.40
22108;DHT22;11220;48.812;9.128;2023-09-08T14:55:32;23.10;96.40
22108;DHT22;11220;48.812;9.128;2023-09-08T14:57:58;23.10;96.30
22108;DHT22;11220;48.812;9.128;2023-09-08T15:00:23;22.90;96.20
22108;DHT22;11220;48.812;9.128;2023-09-08T15:02:49;23.10;96.30
22108;DHT22;11220;48.812;9.128;2023-09-08T15:05:15;23.10;96.30
22108;DHT22;11220;48.812;9.128;2023-09-08T15:07:41;23.10;96.30
22108;DHT22;11220;48.812;9.128;2023-09-08T15:10:07;23.20;96.30
22108;DHT22;11220;48.812;9.128;2023-09-08T15:12:32;23.10;96.30
22108;DHT22;11220;48.812;9.128;2023-09-08T15:14:58;23.20;96.40
22108;DHT22;11220;48.812;9.128;2023-09-08T15:17:23;23.20;96.30
22108;DHT22;11220;48.812;9.128;2023-09-08T15:19:49;23.20;96.30
22108;DHT22;11220;48.812;9.128;2023-09-08T15:22:14;23.20;96.30
22108;DHT22;11220;48.812;9.128;2023-09-08T15:24:40;23.20;96.30
22108;DHT22;11220;48.812;9.128;2023-09-08T15:27:05;23.20;96.30
22108;DHT22;11220;48.812;9.128;2023-09-08T15:29:31;23.20;96.30
22108;DHT22;11220;48.812;9.128;2023-09-08T15:31:56;23.30;96.30